sensor_id;sensor_type;location;lat;lon;timestamp;temperature;humidity
83466;DHT22;73393;51.946;20.140;2024-02-21T00:01:25;4.40;99.60
83466;DHT22;73393;51.946;20.140;2024-02-21T00:03:51;4.40;99.90
83466;DHT22;73393;51.946;20.140;2024-02-21T00:06:17;4.50;100.00
83466;DHT22;73393;51.946;20.140;2024-02-21T00:08:43;4.50;100.00
83466;DHT22;73393;51.946;20.140;2024-02-21T00:11:08;4.60;100.00
83466;DHT22;73393;51.946;20.140;2024-02-21T00:13:34;4.50;100.00
83466;DHT22;73393;51.946;20.140;2024-02-21T00:16:00;4.60;100.00
83466;DHT22;73393;51.946;20.140;2024-02-21T00:18:27;4.60;100.00
83466;DHT22;73393;51.946;20.140;2024-02-21T00:20:52;4.70;100.00
83466;DHT22;73393;51.946;20.140;2024-02-21T00:23:18;4.70;99.80
83466;DHT22;73393;51.946;20.140;2024-02-21T00:25:43;4.80;99.80
83466;DHT22;73393;51.946;20.140;2024-02-21T00:28:09;4.80;99.60
83466;DHT22;73393;51.946;20.140;2024-02-21T00:30:34;4.80;99.40
83466;DHT22;73393;51.946;20.140;2024-02-21T00:33:00;4.80;99.10
83466;DHT22;73393;51.946;20.140;2024-02-21T00:35:26;4.90;99.30
83466;DHT22;73393;51.946;20.140;2024-02-21T00:37:52;4.90;99.70
83466;DHT22;73393;51.946;20.140;2024-02-21T00:40:17;4.90;99.30
83466;DHT22;73393;51.946;20.140;2024-02-21T00:42:46;5.00;99.40
83466;DHT22;73393;51.946;20.140;2024-02-21T00:45:12;4.90;99.60
83466;DHT22;73393;51.946;20.140;2024-02-21T00:47:37;4.90;100.00
83466;DHT22;73393;51.946;20.140;2024-02-21T00:50:03;5.00;100.00
83466;DHT22;73393;51.946;20.140;2024-02-21T00:52:29;5.00;100.00
83466;DHT22;73393;51.946;20.140;2024-02-21T00:54:54;5.00;100.00
83466;DHT22;73393;51.946;20.140;2024-02-21T00:57:20;5.00;100.00
83466;DHT22;73393;51.946;20.140;2024-02-21T00:59:45;5.00;100.00
83466;DHT22;73393;51.946;20.140;2024-02-21T01:02:11;4.90;100.00
83466;DHT22;73393;51.946;20.140;2024-02-21T01:04:37;4.90;100.00
83466;DHT22;73393;51.946;20.140;2024-02-21T01:07:02;5.00;100.00
83466;DHT22;73393;51.946;20.140;2024-02-21T01:09:28;5.00;100.00
83466;DHT22;73393;51.946;20.140;2024-02-21T01:11:53;5.10;100.00
83466;DHT22;73393;51.946;20.140;2024-02-21T01:14:19;5.10;100.00
83466;DHT22;73393;51.946;20.140;2024-02-21T01:16:44;5.10;100.00
83466;DHT22;73393;51.946;20.140;2024-02-21T01:19:10;5.10;100.00
83466;DHT22;73393;51.946;20.140;2024-02-21T01:21:35;5.10;100.00
83466;DHT22;73393;51.946;20.140;2024-02-21T01:24:01;5.10;100.00
83466;DHT22;73393;51.946;20.140;2024-02-21T01:26:27;5.10;100.00
83466;DHT22;73393;51.946;20.140;2024-02-21T01:28:52;5.10;100.00
83466;DHT22;73393;51.946;20.140;2024-02-21T01:31:18;5.10;100.00
83466;DHT22;73393;51.946;20.140;2024-02-21T01:33:43;5.10;100.00
83466;DHT22;73393;51.946;20.140;2024-02-21T01:36:09;5.10;100.00
83466;DHT22;73393;51.946;20.140;2024-02-21T01:38:34;5.10;100.00
83466;DHT22;73393;51.946;20.140;2024-02-21T01:41:00;5.10;100.00
83466;DHT22;73393;51.946;20.140;2024-02-21T01:43:26;5.20;100.00
83466;DHT22;73393;51.946;20.140;2024-02-21T01:45:58;5.10;100.00
83466;DHT22;73393;51.946;20.140;2024-02-21T01:48:24;5.20;100.00
83466;DHT22;73393;51.946;20.140;2024-02-21T01:50:51;5.20;100.00
83466;DHT22;73393;51.946;20.140;2024-02-21T01:53:25;5.20;100.00
83466;DHT22;73393;51.946;20.140;2024-02-21T01:55:53;5.30;100.00
83466;DHT22;73393;51.946;20.140;2024-02-21T01:58:18;5.40;100.00
83466;DHT22;73393;51.946;20.140;2024-02-21T02:00:45;5.40;100.00
83466;DHT22;73393;51.946;20.140;2024-02-21T02:03:14;5.40;100.00
83466;DHT22;73393;51.946;20.140;2024-02-21T02:05:45;5.40;100.00
83466;DHT22;73393;51.946;20.140;2024-02-21T02:08:15;5.40;100.00
83466;DHT22;73393;51.946;20.140;2024-02-21T02:10:41;5.30;100.00
83466;DHT22;73393;51.946;20.140;2024-02-21T02:13:07;5.40;100.00
83466;DHT22;73393;51.946;20.140;2024-02-21T02:15:43;5.40;100.00
83466;DHT22;73393;51.946;20.140;2024-02-21T02:18:10;5.30;100.00
83466;DHT22;73393;51.946;20.140;2024-02-21T02:20:36;5.40;100.00
83466;DHT22;73393;51.946;20.140;2024-02-21T02:23:10;5.40;100.00
83466;DHT22;73393;51.946;20.140;2024-02-21T02:25:37;5.40;100.00
83466;DHT22;73393;51.946;20.140;2024-02-21T02:28:04;5.30;100.00
83466;DHT22;73393;51.946;20.140;2024-02-21T02:30:32;5.40;100.00
83466;DHT22;73393;51.946;20.140;2024-02-21T02:32:59;5.40;100.00
83466;DHT22;73393;51.946;20.140;2024-02-21T02:35:25;5.40;100.00
83466;DHT22;73393;51.946;20.140;2024-02-21T02:37:50;5.30;100.00
83466;DHT22;73393;51.946;20.140;2024-02-21T02:40:17;5.30;100.00
83466;DHT22;73393;51.946;20.140;2024-02-21T02:42:42;5.40;100.00
83466;DHT22;73393;51.946;20.140;2024-02-21T02:45:09;5.40;100.00
83466;DHT22;73393;51.946;20.140;2024-02-21T02:47:34;5.40;100.00
83466;DHT22;73393;51.946;20.140;2024-02-21T02:50:01;5.40;100.00
83466;DHT22;73393;51.946;20.140;2024-02-21T02:52:27;5.50;100.00
83466;DHT22;73393;51.946;20.140;2024-02-21T02:54:54;5.50;100.00
83466;DHT22;73393;51.946;20.140;2024-02-21T02:57:21;5.50;100.00
83466;DHT22;73393;51.946;20.140;2024-02-21T02:59:50;5.50;100.00
83466;DHT22;73393;51.946;20.140;2024-02-21T03:02:16;5.50;100.00
83466;DHT22;73393;51.946;20.140;2024-02-21T03:04:42;5.50;100.00
83466;DHT22;73393;51.946;20.140;2024-02-21T03:07:07;5.50;100.00
83466;DHT22;73393;51.946;20.140;2024-02-21T03:09:33;5.50;100.00
83466;DHT22;73393;51.946;20.140;2024-02-21T03:12:00;5.50;100.00
83466;DHT22;73393;51.946;20.140;2024-02-21T03:14:28;5.50;100.00
83466;DHT22;73393;51.946;20.140;2024-02-21T03:16:54;5.50;100.00
83466;DHT22;73393;51.946;20.140;2024-02-21T03:19:20;5.50;100.00
83466;DHT22;73393;51.946;20.140;2024-02-21T03:21:45;5.40;100.00
83466;DHT22;73393;51.946;20.140;2024-02-21T03:24:11;5.40;100.00
83466;DHT22;73393;51.946;20.140;2024-02-21T03:26:36;5.50;100.00
83466;DHT22;73393;51.946;20.140;2024-02-21T03:29:04;5.50;100.00
83466;DHT22;73393;51.946;20.140;2024-02-21T03:31:29;5.50;100.00
83466;DHT22;73393;51.946;20.140;2024-02-21T03:33:55;5.50;100.00
83466;DHT22;73393;51.946;20.140;2024-02-21T03:36:20;5.50;100.00
83466;DHT22;73393;51.946;20.140;2024-02-21T03:38:46;5.60;100.00
83466;DHT22;73393;51.946;20.140;2024-02-21T03:41:13;5.60;100.00
83466;DHT22;73393;51.946;20.140;2024-02-21T03:43:38;5.60;100.00
83466;DHT22;73393;51.946;20.140;2024-02-21T03:46:04;5.60;100.00
83466;DHT22;73393;51.946;20.140;2024-02-21T03:48:30;5.60;100.00
83466;DHT22;73393;51.946;20.140;2024-02-21T03:50:55;5.70;100.00
83466;DHT22;73393;51.946;20.140;2024-02-21T03:53:21;5.70;100.00
83466;DHT22;73393;51.946;20.140;2024-02-21T03:55:47;5.80;100.00
83466;DHT22;73393;51.946;20.140;2024-02-21T03:58:12;5.80;100.00
83466;DHT22;73393;51.946;20.140;2024-02-21T04:00:38;5.80;100.00
83466;DHT22;73393;51.946;20.140;2024-02-21T04:03:04;5.90;100.00
83466;DHT22;73393;51.946;20.140;2024-02-21T04:05:30;5.90;99.80
83466;DHT22;73393;51.946;20.140;2024-02-21T04:07:55;5.80;99.70
83466;DHT22;73393;51.946;20.140;2024-02-21T04:10:21;5.80;100.00
83466;DHT22;73393;51.946;20.140;2024-02-21T04:12:47;5.90;99.90
83466;DHT22;73393;51.946;20.140;2024-02-21T04:15:18;5.90;99.90
83466;DHT22;73393;51.946;20.140;2024-02-21T04:17:44;5.80;100.00
83466;DHT22;73393;51.946;20.140;2024-02-21T04:20:15;5.80;100.00
83466;DHT22;73393;51.946;20.140;2024-02-21T04:22:44;5.70;100.00
83466;DHT22;73393;51.946;20.140;2024-02-21T04:25:12;5.80;100.00
83466;DHT22;73393;51.946;20.140;2024-02-21T04:27:39;5.70;99.90
83466;DHT22;73393;51.946;20.140;2024-02-21T04:30:06;5.70;100.00
83466;DHT22;73393;51.946;20.140;2024-02-21T04:32:32;5.70;100.00
83466;DHT22;73393;51.946;20.140;2024-02-21T04:34:57;5.70;100.00
83466;DHT22;73393;51.946;20.140;2024-02-21T04:37:23;5.80;100.00
83466;DHT22;73393;51.946;20.140;2024-02-21T04:39:49;5.80;100.00
83466;DHT22;73393;51.946;20.140;2024-02-21T04:42:15;5.90;99.80
83466;DHT22;73393;51.946;20.140;2024-02-21T04:44:41;5.90;99.30
83466;DHT22;73393;51.946;20.140;2024-02-21T04:47:07;5.80;99.20
83466;DHT22;73393;51.946;20.140;2024-02-21T04:49:33;6.00;99.20
83466;DHT22;73393;51.946;20.140;2024-02-21T04:51:59;6.00;98.80
83466;DHT22;73393;51.946;20.140;2024-02-21T04:54:25;6.00;98.60
83466;DHT22;73393;51.946;20.140;2024-02-21T04:56:50;6.00;98.50
83466;DHT22;73393;51.946;20.140;2024-02-21T04:59:16;6.00;98.10
83466;DHT22;73393;51.946;20.140;2024-02-21T05:01:42;6.00;98.00
83466;DHT22;73393;51.946;20.140;2024-02-21T05:04:07;6.00;98.00
83466;DHT22;73393;51.946;20.140;2024-02-21T05:06:40;6.10;97.70
83466;DHT22;73393;51.946;20.140;2024-02-21T05:09:06;6.10;97.40
83466;DHT22;73393;51.946;20.140;2024-02-21T05:11:32;6.00;97.50
83466;DHT22;73393;51.946;20.140;2024-02-21T05:13:58;6.10;97.60
83466;DHT22;73393;51.946;20.140;2024-02-21T05:16:23;6.00;97.50
83466;DHT22;73393;51.946;20.140;2024-02-21T05:18:49;6.10;97.80
83466;DHT22;73393;51.946;20.140;2024-02-21T05:21:15;6.10;97.40
83466;DHT22;73393;51.946;20.140;2024-02-21T05:23:42;6.10;97.30
83466;DHT22;73393;51.946;20.140;2024-02-21T05:26:07;6.10;97.20
83466;DHT22;73393;51.946;20.140;2024-02-21T05:28:33;6.00;97.20
83466;DHT22;73393;51.946;20.140;2024-02-21T05:30:58;6.00;97.50
83466;DHT22;73393;51.946;20.140;2024-02-21T05:33:24;6.10;97.40
83466;DHT22;73393;51.946;20.140;2024-02-21T05:35:51;6.10;97.40
83466;DHT22;73393;51.946;20.140;2024-02-21T05:38:16;6.10;97.50
83466;DHT22;73393;51.946;20.140;2024-02-21T05:40:42;6.00;97.50
83466;DHT22;73393;51.946;20.140;2024-02-21T05:43:08;6.10;97.30
83466;DHT22;73393;51.946;20.140;2024-02-21T05:45:34;6.10;97.10
83466;DHT22;73393;51.946;20.140;2024-02-21T05:48:00;6.00;97.30
83466;DHT22;73393;51.946;20.140;2024-02-21T05:50:26;6.00;97.30
83466;DHT22;73393;51.946;20.140;2024-02-21T05:52:54;6.10;97.20
83466;DHT22;73393;51.946;20.140;2024-02-21T05:55:20;6.20;97.20
83466;DHT22;73393;51.946;20.140;2024-02-21T05:57:45;6.10;97.20
83466;DHT22;73393;51.946;20.140;2024-02-21T06:00:11;6.10;97.00
83466;DHT22;73393;51.946;20.140;2024-02-21T06:02:37;6.10;97.20
83466;DHT22;73393;51.946;20.140;2024-02-21T06:05:03;6.10;97.20
83466;DHT22;73393;51.946;20.140;2024-02-21T06:07:28;6.10;97.10
83466;DHT22;73393;51.946;20.140;2024-02-21T06:09:54;6.10;97.60
83466;DHT22;73393;51.946;20.140;2024-02-21T06:12:19;6.10;98.20
83466;DHT22;73393;51.946;20.140;2024-02-21T06:14:45;6.10;98.30
83466;DHT22;73393;51.946;20.140;2024-02-21T06:17:10;6.20;98.40
83466;DHT22;73393;51.946;20.140;2024-02-21T06:19:40;6.30;97.80
83466;DHT22;73393;51.946;20.140;2024-02-21T06:22:06;6.20;97.70
83466;DHT22;73393;51.946;20.140;2024-02-21T06:24:34;6.20;97.80
83466;DHT22;73393;51.946;20.140;2024-02-21T06:26:59;6.10;98.30
83466;DHT22;73393;51.946;20.140;2024-02-21T06:29:25;6.10;98.60
83466;DHT22;73393;51.946;20.140;2024-02-21T06:31:50;6.20;98.60
83466;DHT22;73393;51.946;20.140;2024-02-21T06:34:16;6.20;98.50
83466;DHT22;73393;51.946;20.140;2024-02-21T06:36:42;6.20;98.40
83466;DHT22;73393;51.946;20.140;2024-02-21T06:39:08;6.20;98.50
83466;DHT22;73393;51.946;20.140;2024-02-21T06:41:33;6.10;99.00
83466;DHT22;73393;51.946;20.140;2024-02-21T06:43:59;6.20;99.30
83466;DHT22;73393;51.946;20.140;2024-02-21T06:46:26;6.20;98.90
83466;DHT22;73393;51.946;20.140;2024-02-21T06:48:52;6.30;98.80
83466;DHT22;73393;51.946;20.140;2024-02-21T06:51:17;6.30;98.40
83466;DHT22;73393;51.946;20.140;2024-02-21T06:53:43;6.30;98.20
83466;DHT22;73393;51.946;20.140;2024-02-21T06:56:09;6.40;98.30
83466;DHT22;73393;51.946;20.140;2024-02-21T06:58:36;6.40;97.80
83466;DHT22;73393;51.946;20.140;2024-02-21T07:01:01;6.50;97.70
83466;DHT22;73393;51.946;20.140;2024-02-21T07:03:27;6.40;97.50
83466;DHT22;73393;51.946;20.140;2024-02-21T07:05:53;6.50;97.40
83466;DHT22;73393;51.946;20.140;2024-02-21T07:08:18;6.60;97.40
83466;DHT22;73393;51.946;20.140;2024-02-21T07:10:44;6.60;96.50
83466;DHT22;73393;51.946;20.140;2024-02-21T07:13:09;6.60;96.70
83466;DHT22;73393;51.946;20.140;2024-02-21T07:15:35;6.70;96.00
83466;DHT22;73393;51.946;20.140;2024-02-21T07:18:02;6.80;95.70
83466;DHT22;73393;51.946;20.140;2024-02-21T07:20:27;6.90;95.40
83466;DHT22;73393;51.946;20.140;2024-02-21T07:22:54;6.80;95.40
83466;DHT22;73393;51.946;20.140;2024-02-21T07:25:19;6.80;95.40
83466;DHT22;73393;51.946;20.140;2024-02-21T07:27:45;6.80;94.90
83466;DHT22;73393;51.946;20.140;2024-02-21T07:30:11;6.80;95.00
83466;DHT22;73393;51.946;20.140;2024-02-21T07:32:36;6.90;94.90
83466;DHT22;73393;51.946;20.140;2024-02-21T07:35:04;7.00;94.20
83466;DHT22;73393;51.946;20.140;2024-02-21T07:37:31;7.00;94.20
83466;DHT22;73393;51.946;20.140;2024-02-21T07:39:56;7.10;93.70
83466;DHT22;73393;51.946;20.140;2024-02-21T07:42:22;7.00;93.30
83466;DHT22;73393;51.946;20.140;2024-02-21T07:44:47;6.90;93.70
83466;DHT22;73393;51.946;20.140;2024-02-21T07:47:13;6.90;93.20
83466;DHT22;73393;51.946;20.140;2024-02-21T07:49:44;6.90;93.70
83466;DHT22;73393;51.946;20.140;2024-02-21T07:52:10;7.00;93.90
83466;DHT22;73393;51.946;20.140;2024-02-21T07:54:35;7.10;93.80
83466;DHT22;73393;51.946;20.140;2024-02-21T07:57:01;7.00;93.30
83466;DHT22;73393;51.946;20.140;2024-02-21T07:59:26;7.10;93.50
83466;DHT22;73393;51.946;20.140;2024-02-21T08:01:56;7.20;92.90
83466;DHT22;73393;51.946;20.140;2024-02-21T08:04:22;7.20;93.00
83466;DHT22;73393;51.946;20.140;2024-02-21T08:06:54;7.30;93.40
83466;DHT22;73393;51.946;20.140;2024-02-21T08:09:21;7.50;93.00
83466;DHT22;73393;51.946;20.140;2024-02-21T08:11:47;7.50;92.10
83466;DHT22;73393;51.946;20.140;2024-02-21T08:14:13;7.50;92.10
83466;DHT22;73393;51.946;20.140;2024-02-21T08:16:41;7.60;91.80
83466;DHT22;73393;51.946;20.140;2024-02-21T08:19:07;7.60;91.70
83466;DHT22;73393;51.946;20.140;2024-02-21T08:21:33;7.50;91.90
83466;DHT22;73393;51.946;20.140;2024-02-21T08:23:58;7.50;91.70
83466;DHT22;73393;51.946;20.140;2024-02-21T08:26:24;7.50;91.90
83466;DHT22;73393;51.946;20.140;2024-02-21T08:28:52;7.60;93.20
83466;DHT22;73393;51.946;20.140;2024-02-21T08:31:20;7.80;92.60
83466;DHT22;73393;51.946;20.140;2024-02-21T08:33:45;8.00;92.10
83466;DHT22;73393;51.946;20.140;2024-02-21T08:36:18;8.20;91.50
83466;DHT22;73393;51.946;20.140;2024-02-21T08:38:45;8.30;90.90
83466;DHT22;73393;51.946;20.140;2024-02-21T08:41:11;8.40;90.30
83466;DHT22;73393;51.946;20.140;2024-02-21T08:43:37;8.60;90.40
83466;DHT22;73393;51.946;20.140;2024-02-21T08:46:04;8.60;89.50
83466;DHT22;73393;51.946;20.140;2024-02-21T08:48:30;8.70;89.40
83466;DHT22;73393;51.946;20.140;2024-02-21T08:50:56;8.40;88.50
83466;DHT22;73393;51.946;20.140;2024-02-21T08:53:21;8.40;89.60
83466;DHT22;73393;51.946;20.140;2024-02-21T08:55:47;8.40;89.30
83466;DHT22;73393;51.946;20.140;2024-02-21T08:58:12;8.50;88.20
83466;DHT22;73393;51.946;20.140;2024-02-21T09:00:40;8.40;88.00
83466;DHT22;73393;51.946;20.140;2024-02-21T09:03:05;8.60;88.50
83466;DHT22;73393;51.946;20.140;2024-02-21T09:05:31;8.60;88.30
83466;DHT22;73393;51.946;20.140;2024-02-21T09:07:56;8.60;87.70
83466;DHT22;73393;51.946;20.140;2024-02-21T09:10:22;8.50;86.90
83466;DHT22;73393;51.946;20.140;2024-02-21T09:12:48;8.60;87.80
83466;DHT22;73393;51.946;20.140;2024-02-21T09:15:13;8.40;86.80
83466;DHT22;73393;51.946;20.140;2024-02-21T09:17:39;8.30;87.40
83466;DHT22;73393;51.946;20.140;2024-02-21T09:20:05;8.20;88.90
83466;DHT22;73393;51.946;20.140;2024-02-21T09:22:31;8.10;89.00
83466;DHT22;73393;51.946;20.140;2024-02-21T09:25:00;8.10;89.20
83466;DHT22;73393;51.946;20.140;2024-02-21T09:27:26;8.00;88.70
83466;DHT22;73393;51.946;20.140;2024-02-21T09:29:51;8.00;89.10
83466;DHT22;73393;51.946;20.140;2024-02-21T09:32:18;7.90;88.70
83466;DHT22;73393;51.946;20.140;2024-02-21T09:34:44;8.00;90.00
83466;DHT22;73393;51.946;20.140;2024-02-21T09:37:11;8.10;89.30
83466;DHT22;73393;51.946;20.140;2024-02-21T09:39:36;8.10;88.90
83466;DHT22;73393;51.946;20.140;2024-02-21T09:42:11;8.10;88.90
83466;DHT22;73393;51.946;20.140;2024-02-21T09:44:37;8.00;88.40
83466;DHT22;73393;51.946;20.140;2024-02-21T09:47:37;8.10;89.10
83466;DHT22;73393;51.946;20.140;2024-02-21T09:50:05;8.00;88.90
83466;DHT22;73393;51.946;20.140;2024-02-21T09:52:32;8.10;89.30
83466;DHT22;73393;51.946;20.140;2024-02-21T09:55:01;8.10;88.90
83466;DHT22;73393;51.946;20.140;2024-02-21T09:57:28;8.00;88.40
83466;DHT22;73393;51.946;20.140;2024-02-21T09:59:55;7.90;88.80
83466;DHT22;73393;51.946;20.140;2024-02-21T10:02:21;8.00;89.40
83466;DHT22;73393;51.946;20.140;2024-02-21T10:04:47;8.20;90.00
83466;DHT22;73393;51.946;20.140;2024-02-21T10:07:13;8.40;88.70
83466;DHT22;73393;51.946;20.140;2024-02-21T10:09:38;8.50;88.50
83466;DHT22;73393;51.946;20.140;2024-02-21T10:12:09;8.50;87.80
83466;DHT22;73393;51.946;20.140;2024-02-21T10:14:35;8.70;87.80
83466;DHT22;73393;51.946;20.140;2024-02-21T10:17:01;8.90;88.00
83466;DHT22;73393;51.946;20.140;2024-02-21T10:19:28;9.10;86.20
83466;DHT22;73393;51.946;20.140;2024-02-21T10:22:07;9.00;85.00
83466;DHT22;73393;51.946;20.140;2024-02-21T10:24:33;9.20;86.20
83466;DHT22;73393;51.946;20.140;2024-02-21T10:27:03;9.20;85.30
83466;DHT22;73393;51.946;20.140;2024-02-21T10:29:32;9.20;85.50
83466;DHT22;73393;51.946;20.140;2024-02-21T10:32:13;9.20;82.90
83466;DHT22;73393;51.946;20.140;2024-02-21T10:34:41;9.10;84.20
83466;DHT22;73393;51.946;20.140;2024-02-21T10:37:11;9.00;84.40
83466;DHT22;73393;51.946;20.140;2024-02-21T10:39:38;9.00;84.00
83466;DHT22;73393;51.946;20.140;2024-02-21T10:42:04;9.00;84.60
83466;DHT22;73393;51.946;20.140;2024-02-21T10:44:32;9.00;84.40
83466;DHT22;73393;51.946;20.140;2024-02-21T10:46:58;9.10;83.90
83466;DHT22;73393;51.946;20.140;2024-02-21T10:49:28;9.10;84.30
83466;DHT22;73393;51.946;20.140;2024-02-21T10:52:06;9.10;83.80
83466;DHT22;73393;51.946;20.140;2024-02-21T10:54:39;9.10;84.40
83466;DHT22;73393;51.946;20.140;2024-02-21T10:57:12;9.10;84.10
83466;DHT22;73393;51.946;20.140;2024-02-21T10:59:39;9.00;82.80
83466;DHT22;73393;51.946;20.140;2024-02-21T11:02:05;9.10;84.40
83466;DHT22;73393;51.946;20.140;2024-02-21T11:04:32;9.20;84.80
83466;DHT22;73393;51.946;20.140;2024-02-21T11:07:02;9.00;83.70
83466;DHT22;73393;51.946;20.140;2024-02-21T11:09:30;9.10;84.90
83466;DHT22;73393;51.946;20.140;2024-02-21T11:12:01;8.90;84.30
83466;DHT22;73393;51.946;20.140;2024-02-21T11:14:28;9.00;84.00
83466;DHT22;73393;51.946;20.140;2024-02-21T11:16:54;9.00;84.70
83466;DHT22;73393;51.946;20.140;2024-02-21T11:19:28;8.80;83.70
83466;DHT22;73393;51.946;20.140;2024-02-21T11:21:55;8.60;84.40
83466;DHT22;73393;51.946;20.140;2024-02-21T11:24:34;8.60;85.10
83466;DHT22;73393;51.946;20.140;2024-02-21T11:27:16;8.60;86.10
83466;DHT22;73393;51.946;20.140;2024-02-21T11:29:57;8.70;86.40
83466;DHT22;73393;51.946;20.140;2024-02-21T11:32:23;8.70;86.10
83466;DHT22;73393;51.946;20.140;2024-02-21T11:35:04;8.80;85.80
83466;DHT22;73393;51.946;20.140;2024-02-21T11:37:31;8.70;85.80
83466;DHT22;73393;51.946;20.140;2024-02-21T11:39:59;8.80;86.70
83466;DHT22;73393;51.946;20.140;2024-02-21T11:42:30;8.70;85.20
83466;DHT22;73393;51.946;20.140;2024-02-21T11:45:00;8.60;86.40
83466;DHT22;73393;51.946;20.140;2024-02-21T11:47:28;8.70;86.90
83466;DHT22;73393;51.946;20.140;2024-02-21T11:49:54;8.80;87.20
83466;DHT22;73393;51.946;20.140;2024-02-21T11:52:26;8.90;87.40
83466;DHT22;73393;51.946;20.140;2024-02-21T11:54:53;8.80;86.20
83466;DHT22;73393;51.946;20.140;2024-02-21T11:57:20;8.60;87.70
83466;DHT22;73393;51.946;20.140;2024-02-21T11:59:45;8.60;88.10
83466;DHT22;73393;51.946;20.140;2024-02-21T12:02:12;8.60;88.30
83466;DHT22;73393;51.946;20.140;2024-02-21T12:04:39;8.70;88.50
83466;DHT22;73393;51.946;20.140;2024-02-21T12:07:05;8.70;88.80
83466;DHT22;73393;51.946;20.140;2024-02-21T12:09:31;8.80;89.20
83466;DHT22;73393;51.946;20.140;2024-02-21T12:11:58;8.70;87.50
83466;DHT22;73393;51.946;20.140;2024-02-21T12:14:25;8.60;88.60
83466;DHT22;73393;51.946;20.140;2024-02-21T12:16:51;8.60;88.10
83466;DHT22;73393;51.946;20.140;2024-02-21T12:19:17;8.60;88.10
83466;DHT22;73393;51.946;20.140;2024-02-21T12:21:44;8.50;87.40
83466;DHT22;73393;51.946;20.140;2024-02-21T12:24:25;8.50;87.30
83466;DHT22;73393;51.946;20.140;2024-02-21T12:26:54;8.50;87.30
83466;DHT22;73393;51.946;20.140;2024-02-21T12:29:22;8.50;87.00
83466;DHT22;73393;51.946;20.140;2024-02-21T12:31:48;8.50;87.90
83466;DHT22;73393;51.946;20.140;2024-02-21T12:34:15;8.50;87.10
83466;DHT22;73393;51.946;20.140;2024-02-21T12:36:42;8.50;86.80
83466;DHT22;73393;51.946;20.140;2024-02-21T12:39:09;8.50;86.90
83466;DHT22;73393;51.946;20.140;2024-02-21T12:41:35;8.40;86.00
83466;DHT22;73393;51.946;20.140;2024-02-21T12:44:04;8.30;86.80
83466;DHT22;73393;51.946;20.140;2024-02-21T12:46:33;8.30;87.40
83466;DHT22;73393;51.946;20.140;2024-02-21T12:48:59;8.30;86.70
83466;DHT22;73393;51.946;20.140;2024-02-21T12:51:25;8.30;87.80
83466;DHT22;73393;51.946;20.140;2024-02-21T12:53:50;8.20;87.50
83466;DHT22;73393;51.946;20.140;2024-02-21T12:56:16;8.30;87.60
83466;DHT22;73393;51.946;20.140;2024-02-21T12:58:42;8.30;87.20
83466;DHT22;73393;51.946;20.140;2024-02-21T13:01:08;8.30;87.40
83466;DHT22;73393;51.946;20.140;2024-02-21T13:03:34;8.30;87.50
83466;DHT22;73393;51.946;20.140;2024-02-21T13:06:00;8.40;86.80
83466;DHT22;73393;51.946;20.140;2024-02-21T13:08:25;8.40;87.80
83466;DHT22;73393;51.946;20.140;2024-02-21T13:10:52;8.30;88.10
83466;DHT22;73393;51.946;20.140;2024-02-21T13:13:18;8.40;88.30
83466;DHT22;73393;51.946;20.140;2024-02-21T13:15:44;8.40;88.20
83466;DHT22;73393;51.946;20.140;2024-02-21T13:18:09;8.50;88.10
83466;DHT22;73393;51.946;20.140;2024-02-21T13:20:36;8.50;88.50
83466;DHT22;73393;51.946;20.140;2024-02-21T13:23:02;8.50;88.90
83466;DHT22;73393;51.946;20.140;2024-02-21T13:25:29;8.50;88.60
83466;DHT22;73393;51.946;20.140;2024-02-21T13:27:55;8.40;89.00
83466;DHT22;73393;51.946;20.140;2024-02-21T13:30:23;8.40;89.20
83466;DHT22;73393;51.946;20.140;2024-02-21T13:32:51;8.40;89.60
83466;DHT22;73393;51.946;20.140;2024-02-21T13:35:16;8.40;89.30
83466;DHT22;73393;51.946;20.140;2024-02-21T13:37:42;8.40;89.70
83466;DHT22;73393;51.946;20.140;2024-02-21T13:40:09;8.40;89.30
83466;DHT22;73393;51.946;20.140;2024-02-21T13:42:37;8.40;89.00
83466;DHT22;73393;51.946;20.140;2024-02-21T13:45:05;8.40;89.60
83466;DHT22;73393;51.946;20.140;2024-02-21T13:47:31;8.50;89.10
83466;DHT22;73393;51.946;20.140;2024-02-21T13:49:57;8.40;89.20
83466;DHT22;73393;51.946;20.140;2024-02-21T13:52:23;8.40;89.40
83466;DHT22;73393;51.946;20.140;2024-02-21T13:54:51;8.20;88.80
83466;DHT22;73393;51.946;20.140;2024-02-21T13:57:17;8.20;89.00
83466;DHT22;73393;51.946;20.140;2024-02-21T13:59:43;8.20;89.50
83466;DHT22;73393;51.946;20.140;2024-02-21T14:02:10;8.20;89.60
83466;DHT22;73393;51.946;20.140;2024-02-21T14:04:35;8.10;89.60
83466;DHT22;73393;51.946;20.140;2024-02-21T14:07:01;8.20;90.10
83466;DHT22;73393;51.946;20.140;2024-02-21T14:09:27;8.10;90.00
83466;DHT22;73393;51.946;20.140;2024-02-21T14:11:55;8.30;90.10
83466;DHT22;73393;51.946;20.140;2024-02-21T14:14:21;8.30;90.00
83466;DHT22;73393;51.946;20.140;2024-02-21T14:16:47;8.40;89.00
83466;DHT22;73393;51.946;20.140;2024-02-21T14:19:14;8.50;88.40
83466;DHT22;73393;51.946;20.140;2024-02-21T14:21:40;8.60;88.40
83466;DHT22;73393;51.946;20.140;2024-02-21T14:24:06;8.60;88.30
83466;DHT22;73393;51.946;20.140;2024-02-21T14:26:32;8.70;88.70
83466;DHT22;73393;51.946;20.140;2024-02-21T14:28:58;8.70;87.80
83466;DHT22;73393;51.946;20.140;2024-02-21T14:31:23;8.70;87.60
83466;DHT22;73393;51.946;20.140;2024-02-21T14:33:49;8.70;88.10
83466;DHT22;73393;51.946;20.140;2024-02-21T14:36:15;8.70;88.00
83466;DHT22;73393;51.946;20.140;2024-02-21T14:38:41;8.70;87.60
83466;DHT22;73393;51.946;20.140;2024-02-21T14:41:07;8.70;87.70
83466;DHT22;73393;51.946;20.140;2024-02-21T14:43:32;8.60;87.10
83466;DHT22;73393;51.946;20.140;2024-02-21T14:46:00;8.60;87.70
83466;DHT22;73393;51.946;20.140;2024-02-21T14:48:25;8.50;87.70
83466;DHT22;73393;51.946;20.140;2024-02-21T14:50:53;8.40;87.80
83466;DHT22;73393;51.946;20.140;2024-02-21T14:53:19;8.40;87.80
83466;DHT22;73393;51.946;20.140;2024-02-21T14:55:45;8.30;87.30
83466;DHT22;73393;51.946;20.140;2024-02-21T14:58:10;8.30;87.60
83466;DHT22;73393;51.946;20.140;2024-02-21T15:00:36;8.10;88.30
83466;DHT22;73393;51.946;20.140;2024-02-21T15:03:02;8.10;88.40
83466;DHT22;73393;51.946;20.140;2024-02-21T15:05:28;8.10;87.80
83466;DHT22;73393;51.946;20.140;2024-02-21T15:07:56;8.00;87.80
83466;DHT22;73393;51.946;20.140;2024-02-21T15:10:23;7.90;87.90
83466;DHT22;73393;51.946;20.140;2024-02-21T15:12:48;7.90;88.60
83466;DHT22;73393;51.946;20.140;2024-02-21T15:15:14;7.80;88.40
83466;DHT22;73393;51.946;20.140;2024-02-21T15:17:40;7.80;88.50
83466;DHT22;73393;51.946;20.140;2024-02-21T15:20:06;7.80;88.50
83466;DHT22;73393;51.946;20.140;2024-02-21T15:22:36;7.70;88.70
83466;DHT22;73393;51.946;20.140;2024-02-21T15:25:02;7.80;89.40